Vremea acum in Pecica - Romania

Vrei sa afli care e starea vremii acum in Timis - Romania? Dorim sa iti furnizam starea vremii pentru Timis - Romania. Starea vremii Timis - Romania pentru astazi.

Vremea acum in Pecica

Temperatura: 19 °C

Se simte ca: 19 °C
Innorat: 0 %
Precipitatii: 0 %
Presiune atmosferica: 1024 hPa
Umiditate: 32%
Vizibilitate: 10 km
Vantul bate din SE cu 11.2 km/h

Evolutia vremii in Pecica pe ore

Ora: 10:00
Parțial noros
Temperatura: 18°C
Sansa de precipitatii: 0%
Ora Descriere Temp Se simte Precipitatii Umiditate Vant
00:00Senin14.8°14.9°0%39%ESE 5.4 KM/H
01:00Senin14.3°14.5°0%41%SE 5 KM/H
02:00Senin13.9°14.2°0%43%SE 5 KM/H
03:00Parțial noros13.1°13.3°0%43%SE 5.4 KM/H
04:00Senin12.4°12.3°0%44%SE 5.4 KM/H
05:00Parțial noros11.6°11.4°0%45%ESE 5.8 KM/H
06:00Parțial noros12°11.9°0%44%ESE 5.8 KM/H
07:00Parțial noros12.5°12.3°0%43%ESE 6.1 KM/H
08:00Parțial noros12.9°12.8°0%42%ESE 6.1 KM/H
09:00Parțial noros15.5°15.4°0%36%ESE 5 KM/H
10:00Parțial noros18°18°0%31%SE 4 KM/H
11:00Parțial noros20.6°20.6°0%26%SE 2.9 KM/H
12:00Parțial noros21.8°21.8°0%24%E 2.9 KM/H
13:00Parțial noros23.1°22.4°0%22%NE 2.9 KM/H
14:00Parțial noros24.3°23.3°0%20%NNE 2.9 KM/H
15:00Parțial noros23.7°23.1°0%21%NNE 3.2 KM/H
16:00Parțial noros23.2°23°0%22%NNE 3.6 KM/H
17:00Parțial noros22.6°22.8°0%23%NE 4 KM/H
18:00Soare21.6°21.6°0%25%NE 5 KM/H
19:00Parțial noros20.6°20.6°0%26%NE 6.5 KM/H
20:00Senin19.6°19.6°0%28%NE 7.6 KM/H
21:00Senin18.3°18.3°0%30%ENE 7.2 KM/H
22:00Senin17°17°0%32%E 6.8 KM/H
23:00Senin15.7°15.7°0%35%E 6.5 KM/H